createdAt,value
2016-06-25T00:00:50.660Z,0
2016-06-25T00:01:50.724Z,0
2016-06-25T00:02:50.934Z,0
2016-06-25T00:03:50.810Z,0
2016-06-25T00:04:50.828Z,0
2016-06-25T00:05:51.081Z,0
2016-06-25T00:06:51.052Z,0
2016-06-25T00:07:51.073Z,0
2016-06-25T00:08:51.070Z,0
2016-06-25T00:09:51.209Z,0
2016-06-25T00:10:51.206Z,0
2016-06-25T00:11:51.307Z,0
2016-06-25T00:12:51.469Z,0
2016-06-25T00:13:51.392Z,0
2016-06-25T00:14:51.467Z,0
2016-06-25T00:15:51.505Z,0
2016-06-25T00:16:51.547Z,0
2016-06-25T00:17:51.616Z,0
2016-06-25T00:18:51.673Z,0
2016-06-25T00:19:51.667Z,0
2016-06-25T00:20:51.772Z,0
2016-06-25T00:21:52.248Z,0
2016-06-25T00:22:51.761Z,0
2016-06-25T00:23:51.862Z,0
2016-06-25T00:24:51.922Z,0
2016-06-25T00:25:51.968Z,0
2016-06-25T00:26:51.989Z,0
2016-06-25T00:27:52.106Z,0
2016-06-25T00:28:52.136Z,0
2016-06-25T00:29:52.069Z,0
2016-06-25T00:30:52.024Z,0
2016-06-25T00:31:52.213Z,0
2016-06-25T00:32:52.283Z,0
2016-06-25T00:33:52.153Z,0
2016-06-25T00:34:52.358Z,0
2016-06-25T00:35:52.269Z,0
2016-06-25T00:36:52.280Z,0
2016-06-25T00:37:52.510Z,0
2016-06-25T00:38:52.551Z,0
2016-06-25T00:39:52.633Z,0
2016-06-25T00:40:52.496Z,0
2016-06-25T00:41:52.687Z,0
2016-06-25T00:42:52.542Z,0
2016-06-25T00:43:52.754Z,0
2016-06-25T00:44:52.658Z,0
2016-06-25T00:45:52.900Z,0
2016-06-25T00:46:52.885Z,0
2016-06-25T00:47:52.778Z,0
2016-06-25T00:48:52.995Z,0
2016-06-25T00:49:52.870Z,0
2016-06-25T00:50:52.970Z,0
2016-06-25T00:51:53.114Z,0
2016-06-25T00:52:53.144Z,0
2016-06-25T00:53:53.064Z,0
2016-06-25T00:54:53.091Z,0
2016-06-25T00:55:53.334Z,0
2016-06-25T00:56:53.372Z,0
2016-06-25T00:57:53.433Z,0
2016-06-25T00:58:53.285Z,0
2016-06-25T00:59:53.328Z,0
2016-06-25T01:00:53.536Z,0
2016-06-25T01:01:53.420Z,0
2016-06-25T01:02:53.617Z,0
2016-06-25T01:03:53.479Z,0
2016-06-25T01:04:53.715Z,0
2016-06-25T01:05:53.775Z,0
2016-06-25T01:06:53.630Z,0
2016-06-25T01:07:53.738Z,0
2016-06-25T01:08:53.895Z,0
2016-06-25T01:09:53.770Z,0
2016-06-25T01:10:53.960Z,0
2016-06-25T01:11:53.875Z,0
2016-06-25T01:12:53.909Z,0
2016-06-25T01:13:53.939Z,0
2016-06-25T01:14:53.958Z,0
2016-06-25T01:15:54.222Z,0
2016-06-25T01:16:54.047Z,0
2016-06-25T01:17:54.297Z,0
2016-06-25T01:18:54.150Z,0
2016-06-25T01:19:54.370Z,0
2016-06-25T01:20:54.253Z,0
2016-06-25T01:21:54.273Z,0
2016-06-25T01:22:54.362Z,0
2016-06-25T01:23:54.381Z,0
2016-06-25T01:24:54.598Z,0
2016-06-25T01:25:54.612Z,0
2016-06-25T01:26:54.696Z,0
2016-06-25T01:27:54.571Z,0
2016-06-25T01:28:54.751Z,0
2016-06-25T01:29:54.819Z,0
2016-06-25T01:30:54.875Z,0
2016-06-25T01:31:54.835Z,0
2016-06-25T01:32:55.062Z,0
2016-06-25T01:33:54.818Z,0
2016-06-25T01:34:55.032Z,0
2016-06-25T01:35:54.928Z,0
2016-06-25T01:36:55.068Z,0
2016-06-25T01:37:55.158Z,0
2016-06-25T01:38:55.226Z,0
2016-06-25T01:39:55.143Z,0
2016-06-25T01:40:55.298Z,0
2016-06-25T01:41:55.407Z,0
2016-06-25T01:42:55.431Z,0
2016-06-25T01:43:55.478Z,0
2016-06-25T01:44:55.285Z,0
2016-06-25T01:45:55.337Z,0
2016-06-25T01:46:55.438Z,0
2016-06-25T01:47:55.612Z,0
2016-06-25T01:48:55.490Z,0
2016-06-25T01:49:55.573Z,0
2016-06-25T01:50:55.743Z,0
2016-06-25T01:51:55.849Z,0
2016-06-25T01:52:55.823Z,0
2016-06-25T01:53:55.886Z,0
2016-06-25T01:54:55.743Z,0
2016-06-25T01:55:55.941Z,0
2016-06-25T01:56:56.058Z,0
2016-06-25T01:57:56.746Z,0
2016-06-25T01:58:56.170Z,0
2016-06-25T01:59:56.046Z,0
2016-06-25T02:00:56.248Z,0
2016-06-25T02:01:56.264Z,0
2016-06-25T02:02:56.312Z,0
2016-06-25T02:03:56.156Z,0
2016-06-25T02:04:56.388Z,0
2016-06-25T02:05:56.378Z,0
2016-06-25T02:06:56.442Z,0
2016-06-25T02:07:56.489Z,4
2016-06-25T02:08:56.544Z,4
2016-06-25T02:09:56.575Z,4
2016-06-25T02:10:56.464Z,0
2016-06-25T02:11:56.693Z,0
2016-06-25T02:12:56.583Z,4
2016-06-25T02:13:56.776Z,4
2016-06-25T02:14:56.823Z,4
2016-06-25T02:15:56.835Z,4
2016-06-25T02:16:56.942Z,4
2016-06-25T02:17:56.800Z,8
2016-06-25T02:18:56.975Z,8
2016-06-25T02:19:56.872Z,8
2016-06-25T02:20:57.039Z,12
2016-06-25T02:21:57.101Z,12
2016-06-25T02:22:57.174Z,12
2016-06-25T02:23:57.234Z,12
2016-06-25T02:24:57.269Z,16
2016-06-25T02:25:57.274Z,20
2016-06-25T02:26:57.374Z,20
2016-06-25T02:27:57.251Z,20
2016-06-25T02:28:57.440Z,28
2016-06-25T02:29:57.371Z,28
2016-06-25T02:30:57.523Z,32
2016-06-25T02:31:57.413Z,36
2016-06-25T02:32:57.444Z,40
2016-06-25T02:33:57.644Z,44
2016-06-25T02:34:57.543Z,48
2016-06-25T02:35:57.687Z,56
2016-06-25T02:36:57.837Z,60
2016-06-25T02:37:57.813Z,68
2016-06-25T02:38:57.711Z,76
2016-06-25T02:39:57.915Z,84
2016-06-25T02:40:57.790Z,92
2016-06-25T02:41:57.862Z,104
2016-06-25T02:42:58.035Z,112
2016-06-25T02:43:58.073Z,124
2016-06-25T02:44:58.121Z,132
2016-06-25T02:45:58.183Z,144
2016-06-25T02:46:58.045Z,156
2016-06-25T02:47:58.231Z,168
2016-06-25T02:48:58.350Z,184
2016-06-25T02:49:58.441Z,200
2016-06-25T02:50:58.322Z,216
2016-06-25T02:51:58.436Z,236
2016-06-25T02:52:58.362Z,256
2016-06-25T02:53:58.559Z,280
2016-06-25T02:54:58.550Z,300
2016-06-25T02:55:58.486Z,320
2016-06-25T02:56:58.659Z,340
2016-06-25T02:57:58.749Z,368
2016-06-25T02:58:58.580Z,404
2016-06-25T02:59:58.800Z,440
2016-06-25T03:00:58.659Z,484
2016-06-25T03:01:58.879Z,528
2016-06-25T03:02:58.743Z,576
2016-06-25T03:03:58.956Z,620
2016-06-25T03:04:58.856Z,664
2016-06-25T03:05:59.630Z,708
2016-06-25T03:06:59.114Z,740
2016-06-25T03:07:59.143Z,780
2016-06-25T03:08:59.199Z,816
2016-06-25T03:09:59.222Z,864
2016-06-25T03:10:59.289Z,916
2016-06-25T03:11:59.171Z,968
2016-06-25T03:12:59.353Z,1020
2016-06-25T03:13:59.394Z,1072
2016-06-25T03:14:59.258Z,1116
2016-06-25T03:15:59.375Z,1160
2016-06-25T03:16:59.642Z,1204
2016-06-25T03:17:59.663Z,1240
2016-06-25T03:18:59.601Z,1272
2016-06-25T03:19:59.661Z,1308
2016-06-25T03:21:00.200Z,1336
2016-06-25T03:21:59.799Z,1356
2016-06-25T03:22:59.624Z,1372
2016-06-25T03:23:59.834Z,1384
2016-06-25T03:24:59.707Z,1392
2016-06-25T03:25:59.973Z,1404
2016-06-25T03:26:59.814Z,1420
2016-06-25T03:28:00.055Z,1436
2016-06-25T03:28:59.885Z,1448
2016-06-25T03:30:00.030Z,1460
2016-06-25T03:31:00.150Z,1468
2016-06-25T03:32:00.041Z,1488
2016-06-25T03:33:00.249Z,1508
2016-06-25T03:34:00.131Z,1532
2016-06-25T03:35:00.180Z,1540
2016-06-25T03:36:00.186Z,1556
2016-06-25T03:37:00.253Z,1572
2016-06-25T03:38:00.292Z,1592
2016-06-25T03:39:00.507Z,1604
2016-06-25T03:40:00.403Z,1612
2016-06-25T03:41:00.566Z,1632
2016-06-25T03:42:00.612Z,1656
2016-06-25T03:43:00.482Z,1680
2016-06-25T03:44:00.763Z,1708
2016-06-25T03:45:00.591Z,1736
2016-06-25T03:46:00.840Z,1764
2016-06-25T03:47:00.726Z,1784
2016-06-25T03:48:00.705Z,1808
2016-06-25T03:49:00.911Z,1828
2016-06-25T03:50:00.857Z,1848
2016-06-25T03:51:00.835Z,1880
2016-06-25T03:52:00.936Z,1912
2016-06-25T03:53:01.134Z,1940
2016-06-25T03:54:01.003Z,1972
2016-06-25T03:55:01.206Z,2000
2016-06-25T03:56:01.269Z,2032
2016-06-25T03:57:01.771Z,2064
2016-06-25T03:58:01.156Z,2092
2016-06-25T03:59:01.385Z,2124
2016-06-25T04:00:01.440Z,2152
2016-06-25T04:01:01.315Z,2184
2016-06-25T04:02:01.492Z,2220
2016-06-25T04:03:01.360Z,2252
2016-06-25T04:04:01.579Z,2288
2016-06-25T04:05:01.605Z,2332
2016-06-25T04:06:01.657Z,2368
2016-06-25T04:07:01.694Z,2404
2016-06-25T04:08:01.747Z,2432
2016-06-25T04:09:01.784Z,2448
2016-06-25T04:10:01.688Z,2472
2016-06-25T04:11:01.881Z,2496
2016-06-25T04:12:01.773Z,2512
2016-06-25T04:13:01.975Z,2544
2016-06-25T04:14:01.846Z,2576
2016-06-25T04:15:02.079Z,2604
2016-06-25T04:16:01.964Z,2616
2016-06-25T04:17:01.995Z,2644
2016-06-25T04:18:02.228Z,2632
2016-06-25T04:19:02.064Z,2636
2016-06-25T04:20:02.206Z,2640
2016-06-25T04:21:02.306Z,2660
2016-06-25T04:22:02.221Z,2692
2016-06-25T04:23:02.248Z,2712
2016-06-25T04:24:02.306Z,2736
2016-06-25T04:25:02.499Z,2756
2016-06-25T04:26:02.565Z,2776
2016-06-25T04:27:02.577Z,2792
2016-06-25T04:28:02.458Z,2808
2016-06-25T04:29:02.674Z,2824
2016-06-25T04:30:02.596Z,2832
2016-06-25T04:31:02.752Z,2836
2016-06-25T04:32:02.808Z,2852
2016-06-25T04:33:02.892Z,2864
2016-06-25T04:34:02.840Z,2876
2016-06-25T04:35:03.019Z,2892
2016-06-25T04:36:02.987Z,2912
2016-06-25T04:37:03.021Z,2932
2016-06-25T04:38:02.949Z,2956
2016-06-25T04:39:03.118Z,2984
2016-06-25T04:40:03.158Z,3012
2016-06-25T04:41:03.050Z,3044
2016-06-25T04:42:03.262Z,3068
2016-06-25T04:43:03.319Z,3092
2016-06-25T04:44:03.209Z,3112
2016-06-25T04:45:03.219Z,3132
2016-06-25T04:46:03.437Z,3148
2016-06-25T04:47:03.288Z,3164
2016-06-25T04:48:03.492Z,3184
2016-06-25T04:49:03.548Z,3204
2016-06-25T04:50:04.348Z,3224
2016-06-25T04:51:03.519Z,3256
2016-06-25T04:52:03.677Z,3288
2016-06-25T04:53:03.586Z,3320
2016-06-25T04:54:03.774Z,3348
2016-06-25T04:55:03.670Z,3376
2016-06-25T04:56:03.854Z,3400
2016-06-25T04:57:03.732Z,3416
2016-06-25T04:58:03.957Z,3432
2016-06-25T04:59:03.846Z,3452
2016-06-25T05:00:04.035Z,3472
2016-06-25T05:01:03.909Z,3480
2016-06-25T05:02:04.123Z,3484
2016-06-25T05:03:04.056Z,3488
2016-06-25T05:04:04.102Z,3488
2016-06-25T05:05:04.097Z,3480
2016-06-25T05:06:04.304Z,3472
2016-06-25T05:07:04.353Z,3472
2016-06-25T05:08:04.395Z,3460
2016-06-25T05:09:04.371Z,3464
2016-06-25T05:10:04.559Z,3476
2016-06-25T05:11:04.539Z,3492
2016-06-25T05:12:04.413Z,3520
2016-06-25T05:13:04.454Z,3540
2016-06-25T05:14:04.471Z,3556
2016-06-25T05:15:04.747Z,3576
2016-06-25T05:16:04.788Z,3584
2016-06-25T05:17:04.654Z,3592
2016-06-25T05:18:04.855Z,3600
2016-06-25T05:19:04.785Z,3600
2016-06-25T05:20:04.763Z,3604
2016-06-25T05:21:04.988Z,3612
2016-06-25T05:22:04.834Z,3624
2016-06-25T05:23:05.055Z,3628
2016-06-25T05:24:04.984Z,3640
2016-06-25T05:25:05.149Z,3640
2016-06-25T05:26:05.188Z,3648
2016-06-25T05:27:05.230Z,3656
2016-06-25T05:28:05.285Z,3660
2016-06-25T05:29:05.185Z,3664
2016-06-25T05:30:05.412Z,3664
2016-06-25T05:31:05.247Z,3672
2016-06-25T05:32:06.194Z,3692
2016-06-25T05:33:05.977Z,3708
2016-06-25T05:34:05.373Z,3724
2016-06-25T05:35:05.438Z,3748
2016-06-25T05:36:05.641Z,3768
2016-06-25T05:37:05.654Z,3780
2016-06-25T05:38:05.554Z,3796
2016-06-25T05:39:05.755Z,3812
2016-06-25T05:40:05.805Z,3824
2016-06-25T05:41:05.668Z,3840
2016-06-25T05:42:05.892Z,3860
2016-06-25T05:43:05.743Z,3876
2016-06-25T05:44:05.960Z,3900
2016-06-25T05:45:06.047Z,3932
2016-06-25T05:46:06.050Z,3952
2016-06-25T05:47:06.110Z,3968
2016-06-25T05:48:06.036Z,3988
2016-06-25T05:49:06.091Z,4004
2016-06-25T05:50:06.923Z,3992
2016-06-25T05:51:06.123Z,3976
2016-06-25T05:52:06.207Z,3952
2016-06-25T05:53:06.392Z,3968
2016-06-25T05:54:06.434Z,3960
2016-06-25T05:55:06.277Z,3904
2016-06-25T05:56:06.524Z,3868
2016-06-25T05:57:07.076Z,3840
2016-06-25T05:58:06.434Z,3784
2016-06-25T05:59:06.478Z,3788
2016-06-25T06:00:06.583Z,3808
2016-06-25T06:01:06.704Z,3880
2016-06-25T06:02:06.613Z,3872
2016-06-25T06:03:06.688Z,3916
2016-06-25T06:04:06.731Z,3956
2016-06-25T06:05:06.927Z,4016
2016-06-25T06:06:06.790Z,4048
2016-06-25T06:07:07.000Z,4024
2016-06-25T06:08:07.038Z,4100
2016-06-25T06:09:07.093Z,4152
2016-06-25T06:10:06.973Z,4132
2016-06-25T06:11:07.205Z,4072
2016-06-25T06:12:07.090Z,4020
2016-06-25T06:13:07.288Z,4032
2016-06-25T06:14:07.179Z,4016
2016-06-25T06:15:07.345Z,4060
2016-06-25T06:16:07.228Z,4076
2016-06-25T06:17:07.287Z,4112
2016-06-25T06:18:07.433Z,4132
2016-06-25T06:19:07.485Z,4132
2016-06-25T06:20:07.429Z,4152
2016-06-25T06:21:07.642Z,4180
2016-06-25T06:22:07.672Z,4224
2016-06-25T06:23:07.757Z,4224
2016-06-25T06:24:07.595Z,4244
2016-06-25T06:25:07.836Z,4316
2016-06-25T06:26:07.861Z,4396
2016-06-25T06:27:07.865Z,4436
2016-06-25T06:28:07.762Z,4496
2016-06-25T06:29:07.819Z,4508
2016-06-25T06:30:08.003Z,4532
2016-06-25T06:31:07.970Z,4556
2016-06-25T06:32:08.145Z,4592
2016-06-25T06:33:08.031Z,4624
2016-06-25T06:34:08.040Z,4648
2016-06-25T06:35:08.281Z,4692
2016-06-25T06:36:08.109Z,4736
2016-06-25T06:37:08.357Z,4792
2016-06-25T06:38:08.189Z,4848
2016-06-25T06:39:08.410Z,4904
2016-06-25T06:40:08.319Z,4944
2016-06-25T06:41:08.494Z,4988
2016-06-25T06:42:08.410Z,5016
2016-06-25T06:43:08.605Z,5044
2016-06-25T06:44:08.617Z,5068
2016-06-25T06:45:08.758Z,5096
2016-06-25T06:46:08.711Z,5128
2016-06-25T06:47:08.650Z,5168
2016-06-25T06:48:08.751Z,5224
2016-06-25T06:49:08.843Z,5284
2016-06-25T06:50:08.739Z,5332
2016-06-25T06:51:08.785Z,5376
2016-06-25T06:52:08.817Z,5424
2016-06-25T06:53:09.077Z,5488
2016-06-25T06:54:08.932Z,5588
2016-06-25T06:55:09.176Z,5712
2016-06-25T06:56:09.184Z,5848
2016-06-25T06:57:09.046Z,5992
2016-06-25T06:58:09.090Z,6124
2016-06-25T06:59:09.303Z,6344
2016-06-25T07:00:09.192Z,6596
2016-06-25T07:01:09.383Z,6820
2016-06-25T07:02:09.440Z,6940
2016-06-25T07:03:10.024Z,7328
2016-06-25T07:04:09.363Z,7636
2016-06-25T07:05:09.428Z,7796
2016-06-25T07:06:09.669Z,8104
2016-06-25T07:07:09.708Z,8164
2016-06-25T07:08:09.733Z,8360
2016-06-25T07:09:09.802Z,8704
2016-06-25T07:10:09.792Z,9092
2016-06-25T07:11:09.682Z,10120
2016-06-25T07:12:09.879Z,9896
2016-06-25T07:13:09.764Z,10332
2016-06-25T07:14:09.807Z,10020
2016-06-25T07:15:09.885Z,9984
2016-06-25T07:16:10.065Z,10548
2016-06-25T07:17:09.966Z,10404
2016-06-25T07:18:10.064Z,10300
2016-06-25T07:19:10.203Z,10080
2016-06-25T07:20:10.256Z,9948
2016-06-25T07:21:10.298Z,9876
2016-06-25T07:22:10.175Z,9732
2016-06-25T07:23:10.415Z,9876
2016-06-25T07:24:10.270Z,10172
2016-06-25T07:25:10.499Z,10880
2016-06-25T07:26:10.536Z,10500
2016-06-25T07:27:10.557Z,9508
2016-06-25T07:28:10.436Z,8380
2016-06-25T07:29:10.485Z,7392
2016-06-25T07:30:10.577Z,6800
2016-06-25T07:31:10.737Z,6604
2016-06-25T07:32:10.630Z,6532
2016-06-25T07:33:10.761Z,6532
2016-06-25T07:34:10.914Z,6540
2016-06-25T07:35:10.876Z,6544
2016-06-25T07:36:10.835Z,6556
2016-06-25T07:37:10.869Z,6600
2016-06-25T07:38:11.057Z,6652
2016-06-25T07:39:11.163Z,6708
2016-06-25T07:40:10.993Z,6784
2016-06-25T07:41:11.036Z,6892
2016-06-25T07:42:11.265Z,7048
2016-06-25T07:43:11.293Z,7272
2016-06-25T07:44:11.244Z,7572
2016-06-25T07:45:11.400Z,7908
2016-06-25T07:46:11.459Z,8264
2016-06-25T07:47:11.481Z,8676
2016-06-25T07:48:11.527Z,9060
2016-06-25T07:49:11.605Z,9048
2016-06-25T07:50:11.482Z,8680
2016-06-25T07:51:11.528Z,8196
2016-06-25T07:52:11.739Z,7888
2016-06-25T07:53:11.600Z,7756
2016-06-25T07:54:11.641Z,7784
2016-06-25T07:55:11.861Z,7936
2016-06-25T07:56:11.952Z,8156
2016-06-25T07:57:11.797Z,8500
2016-06-25T07:58:11.821Z,8884
2016-06-25T07:59:12.020Z,9256
2016-06-25T08:00:11.898Z,9524
2016-06-25T08:01:12.116Z,9692
2016-06-25T08:02:12.076Z,9800
2016-06-25T08:03:12.099Z,9868
2016-06-25T08:04:12.270Z,9936
2016-06-25T08:05:12.350Z,9972
2016-06-25T08:06:12.402Z,9980
2016-06-25T08:07:12.242Z,10036
2016-06-25T08:08:12.459Z,10092
2016-06-25T08:09:12.502Z,9848
2016-06-25T08:10:12.402Z,10448
2016-06-25T08:11:12.609Z,11956
2016-06-25T08:12:12.629Z,12644
2016-06-25T08:13:12.552Z,12280
2016-06-25T08:14:12.715Z,11664
2016-06-25T08:15:12.770Z,11232
2016-06-25T08:16:12.827Z,10668
2016-06-25T08:17:12.907Z,10040
2016-06-25T08:18:12.915Z,9448
2016-06-25T08:19:12.793Z,8888
2016-06-25T08:20:13.025Z,8772
2016-06-25T08:21:13.104Z,8876
2016-06-25T08:22:13.664Z,8668
2016-06-25T08:23:12.987Z,8648
2016-06-25T08:24:13.246Z,8656
2016-06-25T08:25:13.779Z,8640
2016-06-25T08:26:13.337Z,8664
2016-06-25T08:27:13.193Z,8708
2016-06-25T08:28:13.470Z,8684
2016-06-25T08:29:13.444Z,8772
2016-06-25T08:30:13.310Z,8828
2016-06-25T08:31:13.515Z,8880
2016-06-25T08:32:13.498Z,8936
2016-06-25T08:33:13.456Z,8988
2016-06-25T08:34:13.507Z,9020
2016-06-25T08:35:13.784Z,9052
2016-06-25T08:36:13.776Z,9084
2016-06-25T08:37:13.811Z,9120
2016-06-25T08:38:13.859Z,9168
2016-06-25T08:39:13.753Z,9188
2016-06-25T08:40:13.799Z,9188
2016-06-25T08:41:13.828Z,9184
2016-06-25T08:42:14.037Z,9208
2016-06-25T08:43:13.930Z,9260
2016-06-25T08:44:14.153Z,9320
2016-06-25T08:45:14.009Z,9368
2016-06-25T08:46:14.233Z,9420
2016-06-25T08:47:14.360Z,9480
2016-06-25T08:48:14.395Z,9544
2016-06-25T08:49:14.200Z,9636
2016-06-25T08:50:14.259Z,9764
2016-06-25T08:51:14.441Z,9872
2016-06-25T08:52:14.353Z,9980
2016-06-25T08:53:14.622Z,10060
2016-06-25T08:54:14.610Z,10164
2016-06-25T08:55:14.728Z,10280
2016-06-25T08:56:14.581Z,10416
2016-06-25T08:57:15.508Z,10592
2016-06-25T08:58:14.823Z,10796
2016-06-25T08:59:14.898Z,11016
2016-06-25T09:00:14.775Z,11268
2016-06-25T09:01:14.817Z,11576
2016-06-25T09:02:15.599Z,12072
2016-06-25T09:03:15.046Z,12592
2016-06-25T09:04:15.617Z,12524
2016-06-25T09:05:14.966Z,12292
2016-06-25T09:06:15.177Z,12228
2016-06-25T09:07:15.069Z,12060
2016-06-25T09:08:15.343Z,12436
2016-06-25T09:09:15.217Z,12312
2016-06-25T09:10:15.374Z,12132
2016-06-25T09:11:15.246Z,12616
2016-06-25T09:12:15.470Z,12664
2016-06-25T09:13:15.353Z,12684
2016-06-25T09:14:15.632Z,13096
2016-06-25T09:15:15.478Z,13100
2016-06-25T09:16:15.599Z,13060
2016-06-25T09:17:15.674Z,12860
2016-06-25T09:18:15.592Z,12588
2016-06-25T09:19:15.675Z,12316
2016-06-25T09:20:15.922Z,12168
2016-06-25T09:21:15.879Z,12164
2016-06-25T09:22:15.994Z,12200
2016-06-25T09:23:15.814Z,12244
2016-06-25T09:24:16.068Z,12336
2016-06-25T09:25:15.963Z,12472
2016-06-25T09:26:16.146Z,12672
2016-06-25T09:27:16.042Z,12928
2016-06-25T09:28:16.225Z,13176
2016-06-25T09:29:16.277Z,13408
2016-06-25T09:30:16.156Z,13596
2016-06-25T09:31:16.365Z,13784
2016-06-25T09:32:16.486Z,13980
2016-06-25T09:33:16.315Z,14168
2016-06-25T09:34:16.347Z,14352
2016-06-25T09:35:16.575Z,14528
2016-06-25T09:36:16.722Z,14628
2016-06-25T09:37:16.677Z,14544
2016-06-25T09:38:16.584Z,14372
2016-06-25T09:39:16.789Z,14328
2016-06-25T09:40:16.813Z,14332
2016-06-25T09:41:16.673Z,14284
2016-06-25T09:42:16.895Z,14216
2016-06-25T09:43:16.805Z,14188
2016-06-25T09:44:17.037Z,14152
2016-06-25T09:45:16.900Z,14136
2016-06-25T09:46:17.370Z,14140
2016-06-25T09:47:17.222Z,14168
2016-06-25T09:48:17.201Z,14260
2016-06-25T09:49:17.253Z,14468
2016-06-25T09:50:17.282Z,14736
2016-06-25T09:51:17.371Z,14988
2016-06-25T09:52:17.929Z,15240
2016-06-25T09:53:17.282Z,15448
2016-06-25T09:54:17.523Z,15592
2016-06-25T09:55:17.412Z,15680
2016-06-25T09:56:17.583Z,15776
2016-06-25T09:57:17.646Z,15936
2016-06-25T09:58:17.715Z,16168
2016-06-25T09:59:17.558Z,16560
2016-06-25T10:00:17.762Z,16988
2016-06-25T10:01:17.747Z,17352
2016-06-25T10:02:17.717Z,17660
2016-06-25T10:03:17.943Z,17772
2016-06-25T10:04:18.011Z,17720
2016-06-25T10:05:18.024Z,17752
2016-06-25T10:06:18.046Z,17920
2016-06-25T10:07:17.941Z,18272
2016-06-25T10:08:18.117Z,18664
2016-06-25T10:09:18.177Z,19072
2016-06-25T10:10:18.096Z,19136
2016-06-25T10:11:18.333Z,19264
2016-06-25T10:12:18.178Z,19360
2016-06-25T10:13:18.424Z,19424
2016-06-25T10:14:18.285Z,19552
2016-06-25T10:15:18.512Z,19488
2016-06-25T10:16:18.500Z,19136
2016-06-25T10:17:18.433Z,17328
2016-06-25T10:18:18.666Z,15364
2016-06-25T10:19:18.559Z,13740
2016-06-25T10:20:18.794Z,11068
2016-06-25T10:21:18.659Z,10092
2016-06-25T10:22:18.855Z,10328
2016-06-25T10:23:18.748Z,10896
2016-06-25T10:24:19.759Z,11004
2016-06-25T10:25:19.110Z,10724
2016-06-25T10:26:19.164Z,10280
2016-06-25T10:27:18.959Z,9724
2016-06-25T10:28:19.211Z,8980
2016-06-25T10:29:19.135Z,8544
2016-06-25T10:30:19.278Z,8304
2016-06-25T10:31:19.341Z,8276
2016-06-25T10:32:19.183Z,8408
2016-06-25T10:33:19.512Z,8576
2016-06-25T10:34:19.279Z,8728
2016-06-25T10:35:19.526Z,8964
2016-06-25T10:36:20.264Z,9172
2016-06-25T10:37:19.631Z,9560
2016-06-25T10:38:19.481Z,10352
2016-06-25T10:39:19.726Z,11416
2016-06-25T10:40:19.739Z,12472
2016-06-25T10:41:19.606Z,13224
2016-06-25T10:42:19.813Z,13736
2016-06-25T10:43:19.706Z,13992
2016-06-25T10:44:20.686Z,14120
2016-06-25T10:45:19.965Z,14200
2016-06-25T10:46:20.067Z,14312
2016-06-25T10:47:20.804Z,14476
2016-06-25T10:48:20.836Z,14736
2016-06-25T10:49:20.027Z,15048
2016-06-25T10:50:20.258Z,15244
2016-06-25T10:51:20.275Z,15384
2016-06-25T10:52:20.153Z,15600
2016-06-25T10:53:20.361Z,15764
2016-06-25T10:54:20.418Z,15828
2016-06-25T10:55:20.293Z,15924
2016-06-25T10:56:20.490Z,16168
2016-06-25T10:57:20.379Z,16380
2016-06-25T10:58:20.478Z,16580
2016-06-25T10:59:20.691Z,17024
2016-06-25T11:00:20.722Z,17760
2016-06-25T11:01:20.708Z,18784
2016-06-25T11:02:20.668Z,20576
2016-06-25T11:03:20.848Z,22976
2016-06-25T11:04:20.893Z,26240
2016-06-25T11:05:20.803Z,29056
2016-06-25T11:06:21.011Z,33728
2016-06-25T11:07:21.043Z,37472
2016-06-25T11:08:21.051Z,40224
2016-06-25T11:09:21.065Z,47776
2016-06-25T11:10:21.037Z,57056
2016-06-25T11:11:21.216Z,61472
2016-06-25T11:13:21.358Z,66944
2016-06-25T11:14:21.258Z,70176
2016-06-25T11:15:21.346Z,74368
2016-06-25T11:16:21.622Z,82272
2016-06-25T11:17:21.603Z,91648
2016-06-25T11:18:21.628Z,93856
2016-06-25T11:19:21.492Z,97120
2016-06-25T11:20:21.758Z,109888
2016-06-25T11:21:21.665Z,108960
2016-06-25T11:22:21.645Z,106048
2016-06-25T11:23:21.694Z,104416
2016-06-25T11:24:21.951Z,105024
2016-06-25T11:25:21.807Z,109856
2016-06-25T11:26:22.074Z,107424
2016-06-25T11:27:22.113Z,94272
2016-06-25T11:28:22.143Z,88512
2016-06-25T11:29:22.070Z,72288
2016-06-25T11:30:22.642Z,47648
2016-06-25T11:31:22.311Z,53376
2016-06-25T11:32:22.307Z,38656
2016-06-25T11:33:22.440Z,40736
2016-06-25T11:34:22.756Z,47136
2016-06-25T11:35:23.265Z,29952
2016-06-25T11:36:22.479Z,28864
2016-06-25T11:37:22.621Z,30176
2016-06-25T11:38:22.747Z,45888
2016-06-25T11:39:23.723Z,56000
2016-06-25T11:40:24.270Z,64576
2016-06-25T11:41:22.839Z,60576
2016-06-25T11:42:22.843Z,62336
2016-06-25T11:43:23.015Z,56064
2016-06-25T11:44:23.788Z,50304
2016-06-25T11:45:23.098Z,33408
2016-06-25T11:46:23.784Z,23296
2016-06-25T11:47:23.092Z,19296
2016-06-25T11:48:23.262Z,13596
2016-06-25T11:49:23.203Z,12452
2016-06-25T11:50:23.351Z,11672
2016-06-25T11:51:23.339Z,11384
2016-06-25T11:52:23.390Z,10820
2016-06-25T11:53:23.446Z,9960
2016-06-25T11:54:23.468Z,9208
2016-06-25T11:55:24.943Z,8416
2016-06-25T11:56:23.694Z,7684
2016-06-25T11:57:23.679Z,7052
2016-06-25T11:58:23.698Z,6524
2016-06-25T11:59:23.798Z,6176
2016-06-25T12:00:23.902Z,5956
2016-06-25T12:01:24.507Z,5784
2016-06-25T12:02:23.882Z,5616
2016-06-25T12:03:24.068Z,5404
2016-06-25T12:04:23.997Z,5140
2016-06-25T12:05:24.027Z,4856
2016-06-25T12:06:24.124Z,4568
2016-06-25T12:07:24.320Z,4288
2016-06-25T12:08:24.284Z,4008
2016-06-25T12:09:24.369Z,3748
2016-06-25T12:10:24.257Z,3532
2016-06-25T12:11:24.369Z,3348
2016-06-25T12:12:24.495Z,3200
2016-06-25T12:13:24.405Z,3060
2016-06-25T12:14:25.306Z,2928
2016-06-25T12:15:24.653Z,2816
2016-06-25T12:16:24.575Z,2724
2016-06-25T12:17:24.726Z,2648
2016-06-25T12:18:24.645Z,2580
2016-06-25T12:19:24.833Z,2520
2016-06-25T12:20:24.774Z,2456
2016-06-25T12:21:24.930Z,2384
2016-06-25T12:22:24.949Z,2312
2016-06-25T12:23:24.934Z,2252
2016-06-25T12:24:25.101Z,2204
2016-06-25T12:25:25.013Z,2168
2016-06-25T12:26:25.058Z,2144
2016-06-25T12:27:25.947Z,2112
2016-06-25T12:28:25.186Z,2072
2016-06-25T12:29:25.289Z,2040
2016-06-25T12:30:25.322Z,2008
2016-06-25T12:31:25.377Z,1988
2016-06-25T12:32:25.473Z,1944
2016-06-25T12:33:25.377Z,1888
2016-06-25T12:34:25.542Z,1832
2016-06-25T12:35:25.487Z,1788
2016-06-25T12:36:25.624Z,1748
2016-06-25T12:37:25.703Z,1700
2016-06-25T12:38:25.647Z,1656
2016-06-25T12:39:25.694Z,1628
2016-06-25T12:40:25.725Z,1620
2016-06-25T12:41:25.877Z,1608
2016-06-25T12:42:25.816Z,1540
2016-06-25T12:43:25.868Z,1408
2016-06-25T12:44:25.974Z,1232
2016-06-25T12:45:26.055Z,1000
2016-06-25T12:46:26.008Z,672
2016-06-25T12:47:26.123Z,432
2016-06-25T12:48:26.193Z,360
2016-06-25T12:49:26.250Z,372
2016-06-25T12:50:26.314Z,476
2016-06-25T12:51:26.235Z,588
2016-06-25T12:52:26.381Z,612
2016-06-25T12:53:26.311Z,624
2016-06-25T12:54:26.489Z,656
2016-06-25T12:55:26.431Z,704
2016-06-25T12:56:26.557Z,740
2016-06-25T12:57:26.582Z,756
2016-06-25T12:58:26.541Z,752
2016-06-25T12:59:26.647Z,768
2016-06-25T13:00:26.755Z,776
2016-06-25T13:01:26.679Z,792
2016-06-25T13:02:26.750Z,804
2016-06-25T13:03:26.951Z,844
2016-06-25T13:04:26.811Z,908
2016-06-25T13:05:26.870Z,980
2016-06-25T13:06:27.044Z,1060
2016-06-25T13:07:27.006Z,1148
2016-06-25T13:08:27.111Z,1212
2016-06-25T13:09:27.200Z,1252
2016-06-25T13:10:27.136Z,1284
2016-06-25T13:11:27.247Z,1316
2016-06-25T13:12:27.308Z,1344
2016-06-25T13:13:27.276Z,1380
2016-06-25T13:14:27.306Z,1436
2016-06-25T13:15:27.466Z,1488
2016-06-25T13:16:27.370Z,1564
2016-06-25T13:17:27.554Z,1668
2016-06-25T13:18:27.620Z,1808
2016-06-25T13:19:28.291Z,1984
2016-06-25T13:20:27.662Z,2192
2016-06-25T13:21:27.604Z,2456
2016-06-25T13:22:27.743Z,2768
2016-06-25T13:23:28.551Z,3084
2016-06-25T13:24:27.750Z,3400
2016-06-25T13:25:27.931Z,3756
2016-06-25T13:26:27.868Z,4148
2016-06-25T13:27:27.979Z,4580
2016-06-25T13:28:28.588Z,5096
2016-06-25T13:29:28.023Z,5692
2016-06-25T13:30:28.119Z,6416
2016-06-25T13:31:28.162Z,7208